createdAt,value
2022-08-07T00:00:25.401Z,6.65
2022-08-07T00:02:53.715Z,6.72
2022-08-07T00:05:20.756Z,7.50
2022-08-07T00:07:58.228Z,6.93
2022-08-07T00:10:30.438Z,6.38
2022-08-07T00:13:03.323Z,6.60
2022-08-07T00:15:50.875Z,6.97
2022-08-07T00:18:24.039Z,6.60
2022-08-07T00:20:57.571Z,7.27
2022-08-07T00:23:30.097Z,6.13
2022-08-07T00:26:00.156Z,6.50
2022-08-07T00:28:34.079Z,6.22
2022-08-07T00:31:04.432Z,6.95
2022-08-07T00:33:33.594Z,6.73
2022-08-07T00:36:00.268Z,6.93
2022-08-07T00:38:31.166Z,7.18
2022-08-07T00:40:59.344Z,6.50
2022-08-07T00:44:01.339Z,7.13
2022-08-07T00:46:13.150Z,6.77
2022-08-07T00:48:42.320Z,7.20
2022-08-07T00:51:10.478Z,6.75
2022-08-07T00:53:39.084Z,7.07
2022-08-07T00:56:18.169Z,6.53
2022-08-07T00:58:47.048Z,7.37
2022-08-07T01:01:17.608Z,6.40
2022-08-07T01:03:55.830Z,7.88
2022-08-07T01:06:25.882Z,7.18
2022-08-07T01:08:53.836Z,6.97
2022-08-07T01:12:10.099Z,6.67
2022-08-07T01:14:10.393Z,5.97
2022-08-07T01:16:37.670Z,6.72
2022-08-07T01:19:18.346Z,6.32
2022-08-07T01:21:53.395Z,6.32
2022-08-07T01:24:22.810Z,6.90
2022-08-07T01:26:51.928Z,5.93
2022-08-07T01:29:20.574Z,6.30
2022-08-07T01:31:49.645Z,6.40
2022-08-07T01:34:18.003Z,6.75
2022-08-07T01:36:52.644Z,6.53
2022-08-07T01:39:39.684Z,6.10
2022-08-07T01:42:40.020Z,6.20
2022-08-07T01:45:02.080Z,6.75
2022-08-07T01:48:18.623Z,6.55
2022-08-07T01:50:16.639Z,7.03
2022-08-07T01:52:54.357Z,6.00
2022-08-07T01:55:28.346Z,6.10
2022-08-07T01:58:05.676Z,6.30
2022-08-07T02:00:38.824Z,5.70
2022-08-07T02:03:21.926Z,7.33
2022-08-07T02:06:08.834Z,6.57
2022-08-07T02:08:54.546Z,6.97
2022-08-07T02:12:04.029Z,6.00
2022-08-07T02:14:09.919Z,7.53
2022-08-07T02:16:42.636Z,5.47
2022-08-07T02:20:04.768Z,5.85
2022-08-07T02:22:02.758Z,6.43
2022-08-07T02:24:30.332Z,5.93
2022-08-07T02:27:01.425Z,6.55
2022-08-07T02:29:31.457Z,6.00
2022-08-07T02:32:00.158Z,6.72
2022-08-07T02:34:28.406Z,6.07
2022-08-07T02:36:57.987Z,5.80
2022-08-07T02:39:43.817Z,6.07
2022-08-07T02:42:16.417Z,5.13
2022-08-07T02:44:48.033Z,5.18
2022-08-07T02:47:23.783Z,5.53
2022-08-07T02:49:57.568Z,5.70
2022-08-07T02:53:03.429Z,5.40
2022-08-07T02:56:02.503Z,5.50
2022-08-07T02:58:22.400Z,6.10
2022-08-07T03:00:57.447Z,5.60
2022-08-07T03:03:29.658Z,5.22
2022-08-07T03:06:16.393Z,4.97
2022-08-07T03:08:52.802Z,4.93
2022-08-07T03:11:20.458Z,6.22
2022-08-07T03:13:57.680Z,5.93
2022-08-07T03:16:30.394Z,5.32
2022-08-07T03:19:01.485Z,5.00
2022-08-07T03:21:29.147Z,4.57
2022-08-07T03:24:20.465Z,4.70
2022-08-07T03:26:58.385Z,4.90
2022-08-07T03:29:33.795Z,5.13
2022-08-07T03:32:05.198Z,4.72
2022-08-07T03:34:39.123Z,5.23
2022-08-07T03:37:12.643Z,5.07
2022-08-07T03:39:59.159Z,5.00
2022-08-07T03:42:27.204Z,4.65
2022-08-07T03:44:58.001Z,4.65
2022-08-07T03:47:26.131Z,5.40
2022-08-07T03:49:57.758Z,5.10
2022-08-07T03:52:27.722Z,5.85
2022-08-07T03:54:59.176Z,4.65
2022-08-07T03:58:34.611Z,4.70
2022-08-07T04:00:30.642Z,5.20
2022-08-07T04:03:03.759Z,4.60
2022-08-07T04:05:40.996Z,4.65
2022-08-07T04:08:16.055Z,4.90
2022-08-07T04:10:54.129Z,4.45
2022-08-07T04:14:14.052Z,5.47
2022-08-07T04:16:31.358Z,4.45
2022-08-07T04:19:01.631Z,4.75
2022-08-07T04:21:33.332Z,4.40
2022-08-07T04:24:06.070Z,4.65
2022-08-07T04:26:34.792Z,4.53
2022-08-07T04:29:03.177Z,4.50
2022-08-07T04:32:02.702Z,4.90
2022-08-07T04:34:24.077Z,4.20
2022-08-07T04:37:00.845Z,4.07
2022-08-07T04:39:29.292Z,4.53
2022-08-07T04:42:04.035Z,3.97
2022-08-07T04:44:30.950Z,4.20
2022-08-07T04:47:56.787Z,4.07
2022-08-07T04:50:12.493Z,4.13
2022-08-07T04:52:51.807Z,4.03
2022-08-07T04:58:16.316Z,4.40
2022-08-07T04:59:18.532Z,4.22
2022-08-07T05:02:08.945Z,4.25
2022-08-07T05:05:52.042Z,4.05
2022-08-07T05:08:58.910Z,4.00
2022-08-07T05:11:58.510Z,4.28
2022-08-07T05:14:55.986Z,4.15
2022-08-07T05:17:52.803Z,6.82
2022-08-07T05:20:10.879Z,4.85
2022-08-07T05:22:39.507Z,3.87
2022-08-07T05:25:08.730Z,8.40
2022-08-07T05:28:16.274Z,5.28
2022-08-07T05:30:42.517Z,5.22
2022-08-07T05:33:11.301Z,4.68
2022-08-07T05:35:42.089Z,3.97
2022-08-07T05:38:11.227Z,5.93
2022-08-07T05:40:42.764Z,5.15
2022-08-07T05:43:18.607Z,4.15
2022-08-07T05:45:48.103Z,3.70
2022-08-07T05:48:16.562Z,3.93
2022-08-07T05:50:44.302Z,3.40
2022-08-07T05:54:08.714Z,4.35
2022-08-07T05:56:02.093Z,3.92
2022-08-07T05:58:37.023Z,4.40
2022-08-07T06:01:10.760Z,5.50
2022-08-07T06:03:56.598Z,3.78
2022-08-07T06:06:29.347Z,4.18
2022-08-07T06:08:57.655Z,5.05
2022-08-07T06:11:25.278Z,4.45
2022-08-07T06:14:13.213Z,3.10
2022-08-07T06:16:40.667Z,4.15
2022-08-07T06:19:08.679Z,5.00
2022-08-07T06:22:16.832Z,3.85
2022-08-07T06:24:45.476Z,5.28
2022-08-07T06:27:44.295Z,4.50
2022-08-07T06:30:31.996Z,3.40
2022-08-07T06:32:58.170Z,4.03
2022-08-07T06:35:24.917Z,3.72
2022-08-07T06:38:08.287Z,3.72
2022-08-07T06:40:54.261Z,4.17
2022-08-07T06:43:23.777Z,5.18
2022-08-07T06:45:50.850Z,3.90
2022-08-07T06:48:25.009Z,4.85
2022-08-07T06:50:54.779Z,4.32
2022-08-07T06:55:27.295Z,5.67
2022-08-07T06:56:15.036Z,4.72
2022-08-07T07:00:12.709Z,4.70
2022-08-07T07:01:44.115Z,3.03
2022-08-07T07:04:28.140Z,4.38
2022-08-07T07:07:00.983Z,3.90
2022-08-07T07:09:31.211Z,4.35
2022-08-07T07:12:25.620Z,4.53
2022-08-07T07:15:08.611Z,3.50
2022-08-07T07:17:52.903Z,3.75
2022-08-07T07:20:27.577Z,4.17
2022-08-07T07:24:10.064Z,3.35
2022-08-07T07:26:32.806Z,4.07
2022-08-07T07:28:48.389Z,3.33
2022-08-07T07:31:57.039Z,3.25
2022-08-07T07:34:31.196Z,3.87
2022-08-07T07:37:14.584Z,3.58
2022-08-07T07:39:55.341Z,4.03
2022-08-07T07:42:32.451Z,3.45
2022-08-07T07:45:02.327Z,3.55
2022-08-07T07:47:42.939Z,3.40
2022-08-07T07:50:34.297Z,3.72
2022-08-07T07:53:13.731Z,3.80
2022-08-07T07:55:57.715Z,4.07
2022-08-07T07:58:40.298Z,3.63
2022-08-07T08:02:02.707Z,4.03
2022-08-07T08:04:10.435Z,4.30
2022-08-07T08:06:52.109Z,4.25
2022-08-07T08:09:20.763Z,2.97
2022-08-07T08:12:01.624Z,6.85
2022-08-07T08:14:36.615Z,3.43
2022-08-07T08:18:36.868Z,4.18
2022-08-07T08:20:19.086Z,6.35
2022-08-07T08:23:08.356Z,4.00
2022-08-07T08:25:56.448Z,3.45
2022-08-07T08:28:37.282Z,4.23
2022-08-07T08:31:14.799Z,3.30
2022-08-07T08:33:48.972Z,3.30
2022-08-07T08:36:25.565Z,3.13
2022-08-07T08:38:57.550Z,2.67
2022-08-07T08:41:57.618Z,3.73
2022-08-07T08:44:53.294Z,4.80
2022-08-07T08:47:57.547Z,4.47
2022-08-07T08:50:39.108Z,3.33
2022-08-07T08:53:16.597Z,3.83
2022-08-07T08:56:02.471Z,3.93
2022-08-07T08:58:54.463Z,4.18
2022-08-07T09:01:40.033Z,4.07
2022-08-07T09:04:26.139Z,3.15
2022-08-07T09:07:01.516Z,4.72
2022-08-07T09:10:14.832Z,2.43
2022-08-07T09:13:14.863Z,2.83
2022-08-07T09:16:22.310Z,3.22
2022-08-07T09:19:52.015Z,3.00
2022-08-07T09:24:32.047Z,3.30
2022-08-07T09:25:24.619Z,3.30
2022-08-07T09:28:05.133Z,2.92
2022-08-07T09:30:37.942Z,3.17
2022-08-07T09:33:40.893Z,2.58
2022-08-07T09:36:21.896Z,3.17
2022-08-07T09:39:52.606Z,2.93
2022-08-07T09:42:11.952Z,2.70
2022-08-07T09:47:25.998Z,4.30
2022-08-07T09:48:29.848Z,3.35
2022-08-07T09:51:25.988Z,3.10
2022-08-07T09:54:03.286Z,2.77
2022-08-07T09:57:14.566Z,3.58
2022-08-07T10:00:06.511Z,2.83
2022-08-07T10:02:57.944Z,2.72
2022-08-07T10:06:17.248Z,2.72
2022-08-07T10:09:23.584Z,3.60
2022-08-07T10:12:34.859Z,3.88
2022-08-07T10:15:30.349Z,3.10
2022-08-07T10:18:27.108Z,3.15
2022-08-07T10:22:12.555Z,2.95
2022-08-07T10:24:26.757Z,2.50
2022-08-07T10:26:53.702Z,3.03
2022-08-07T10:29:51.437Z,3.35
2022-08-07T10:32:52.635Z,3.70
2022-08-07T10:35:56.280Z,2.88
2022-08-07T10:38:36.031Z,3.20
2022-08-07T10:41:51.247Z,2.42
2022-08-07T10:44:39.933Z,3.83
2022-08-07T10:47:54.917Z,2.47
2022-08-07T10:50:25.970Z,2.58
2022-08-07T10:53:27.459Z,2.83
2022-08-07T10:56:20.869Z,3.17
2022-08-07T10:59:38.660Z,3.05
2022-08-07T11:02:33.116Z,3.20
2022-08-07T11:05:35.684Z,2.75
2022-08-07T11:08:41.548Z,3.40
2022-08-07T11:11:14.244Z,2.88
2022-08-07T11:14:43.990Z,3.33
2022-08-07T11:16:54.768Z,3.03
2022-08-07T11:19:27.216Z,3.28
2022-08-07T11:22:18.841Z,3.47
2022-08-07T11:24:59.829Z,3.10
2022-08-07T11:28:01.376Z,2.65
2022-08-07T11:30:41.973Z,2.78
2022-08-07T11:33:58.749Z,2.47
2022-08-07T11:36:31.827Z,3.10
2022-08-07T11:39:23.943Z,3.03
2022-08-07T11:42:05.784Z,3.20
2022-08-07T11:44:52.127Z,2.67
2022-08-07T11:47:56.516Z,2.80
2022-08-07T11:50:57.814Z,2.23
2022-08-07T11:53:43.368Z,2.63
2022-08-07T11:56:56.288Z,2.83
2022-08-07T12:00:11.499Z,2.25
2022-08-07T12:02:52.625Z,2.97
2022-08-07T12:05:58.439Z,3.30
2022-08-07T12:08:44.149Z,2.95
2022-08-07T12:12:09.171Z,3.40
2022-08-07T12:15:00.478Z,2.65
2022-08-07T12:17:58.609Z,3.10
2022-08-07T12:20:51.162Z,3.60
2022-08-07T12:24:06.304Z,2.50
2022-08-07T12:26:29.793Z,3.28
2022-08-07T12:29:11.309Z,2.10
2022-08-07T12:32:02.054Z,2.88
2022-08-07T12:34:34.603Z,3.43
2022-08-07T12:37:08.474Z,2.90
2022-08-07T12:39:52.524Z,2.28
2022-08-07T12:42:27.089Z,2.75
2022-08-07T12:45:04.481Z,3.00
2022-08-07T12:47:45.686Z,2.70
2022-08-07T12:50:34.017Z,2.28
2022-08-07T12:54:02.652Z,2.70
2022-08-07T12:56:31.097Z,2.58
2022-08-07T12:59:00.759Z,2.95
2022-08-07T13:02:01.393Z,2.50
2022-08-07T13:05:02.605Z,2.28
2022-08-07T13:08:33.830Z,2.95
2022-08-07T13:11:06.164Z,2.30
2022-08-07T13:13:51.582Z,2.35
2022-08-07T13:16:36.784Z,2.60
2022-08-07T13:19:45.798Z,2.42
2022-08-07T13:22:34.301Z,3.28
2022-08-07T13:25:23.888Z,2.40
2022-08-07T13:28:13.078Z,2.63
2022-08-07T13:30:52.286Z,2.87
2022-08-07T13:34:31.876Z,2.85
2022-08-07T13:36:17.428Z,3.10
2022-08-07T13:39:28.253Z,2.05
2022-08-07T13:42:00.955Z,2.85
2022-08-07T13:44:34.317Z,2.87
2022-08-07T13:47:09.308Z,2.30
2022-08-07T13:50:33.597Z,2.53
2022-08-07T13:52:38.063Z,2.75
2022-08-07T13:55:26.224Z,2.03
2022-08-07T13:58:27.654Z,2.53
2022-08-07T14:00:58.047Z,5.30
2022-08-07T14:04:05.403Z,3.60
2022-08-07T14:06:17.759Z,3.22
2022-08-07T14:08:48.793Z,4.13
2022-08-07T14:11:23.466Z,3.20
2022-08-07T14:14:02.555Z,2.88
2022-08-07T14:16:38.054Z,3.28
2022-08-07T14:19:10.530Z,3.38
2022-08-07T14:22:03.921Z,3.08
2022-08-07T14:24:41.593Z,3.30
2022-08-07T14:27:16.082Z,3.22
2022-08-07T14:30:11.868Z,4.35
2022-08-07T14:32:55.292Z,5.05
2022-08-07T14:35:45.024Z,2.63
2022-08-07T14:38:26.741Z,2.97
2022-08-07T14:41:02.263Z,3.20
2022-08-07T14:43:55.186Z,3.22
2022-08-07T14:49:57.582Z,2.92
2022-08-07T14:52:04.591Z,2.70
2022-08-07T14:54:42.175Z,3.95
2022-08-07T14:57:19.536Z,2.80
2022-08-07T15:00:05.191Z,2.65
2022-08-07T15:02:34.466Z,3.75
2022-08-07T15:05:03.419Z,2.50
2022-08-07T15:07:51.333Z,3.33
2022-08-07T15:13:18.086Z,2.53
2022-08-07T15:15:53.479Z,2.55
2022-08-07T15:27:09.928Z,3.42
2022-08-07T15:32:38.860Z,2.40
2022-08-07T15:35:14.516Z,3.35
2022-08-07T15:40:38.439Z,3.08
2022-08-07T15:43:33.094Z,3.05
2022-08-07T15:46:31.728Z,2.97
2022-08-07T15:52:01.688Z,2.90
2022-08-07T15:54:39.236Z,2.38
2022-08-07T15:57:28.339Z,2.85
2022-08-07T15:59:59.532Z,2.17
2022-08-07T16:02:46.911Z,2.47
2022-08-07T16:05:17.924Z,3.22
2022-08-07T16:08:33.706Z,3.53
2022-08-07T16:11:04.180Z,2.20
2022-08-07T16:13:58.962Z,2.17
2022-08-07T16:17:15.112Z,2.17
2022-08-07T16:20:00.144Z,2.70
2022-08-07T16:22:55.672Z,2.40
2022-08-07T16:25:54.717Z,2.53
2022-08-07T16:30:07.886Z,2.67
2022-08-07T16:31:51.312Z,2.55
2022-08-07T16:34:32.840Z,2.65
2022-08-07T16:38:02.930Z,2.70
2022-08-07T16:40:28.975Z,2.40
2022-08-07T16:43:03.429Z,3.20
2022-08-07T16:46:33.694Z,2.20
2022-08-07T16:50:28.789Z,3.47
2022-08-07T16:52:51.991Z,2.72
2022-08-07T16:55:08.461Z,2.55
2022-08-07T16:58:03.745Z,3.30
2022-08-07T17:00:41.416Z,2.20
2022-08-07T17:03:15.811Z,2.40
2022-08-07T17:06:34.294Z,2.33
2022-08-07T17:10:06.884Z,1.98
2022-08-07T17:12:44.684Z,2.00
2022-08-07T17:15:16.028Z,1.75
2022-08-07T17:17:47.361Z,3.33
2022-08-07T17:20:33.205Z,2.10
2022-08-07T17:23:14.949Z,2.45
2022-08-07T17:26:22.577Z,2.13
2022-08-07T17:29:06.268Z,2.35
2022-08-07T17:31:44.295Z,2.42
2022-08-07T17:34:57.255Z,2.95
2022-08-07T17:38:09.521Z,1.95
2022-08-07T17:40:54.526Z,1.50
2022-08-07T17:44:01.500Z,3.38
2022-08-07T17:46:52.143Z,2.42
2022-08-07T17:49:24.168Z,1.75
2022-08-07T17:52:12.663Z,2.60
2022-08-07T17:54:54.037Z,2.23
2022-08-07T17:57:59.028Z,3.05
2022-08-07T18:00:34.656Z,3.03
2022-08-07T18:04:04.200Z,3.05
2022-08-07T18:06:36.640Z,1.80
2022-08-07T18:09:06.300Z,2.53
2022-08-07T18:12:17.897Z,2.58
2022-08-07T18:14:54.830Z,2.90
2022-08-07T18:18:47.687Z,3.35
2022-08-07T18:21:12.556Z,3.03
2022-08-07T18:23:41.974Z,2.80
2022-08-07T18:26:05.431Z,2.55
2022-08-07T18:30:07.238Z,2.20
2022-08-07T18:32:09.078Z,2.88
2022-08-07T18:35:00.966Z,2.30
2022-08-07T18:38:57.673Z,1.83
2022-08-07T18:41:03.800Z,2.03
2022-08-07T18:43:49.182Z,1.83
2022-08-07T18:46:43.128Z,2.13
2022-08-07T18:50:19.206Z,1.65
2022-08-07T18:53:06.055Z,2.07
2022-08-07T18:55:55.719Z,2.08
2022-08-07T18:58:34.738Z,3.00
2022-08-07T19:02:16.023Z,2.22
2022-08-07T19:04:09.375Z,2.75
2022-08-07T19:06:53.207Z,2.20
2022-08-07T19:09:56.352Z,2.33
2022-08-07T19:12:21.714Z,2.15
2022-08-07T19:14:55.905Z,2.42
2022-08-07T19:18:00.961Z,1.92
2022-08-07T19:21:09.110Z,1.63
2022-08-07T19:23:58.767Z,3.17
2022-08-07T19:26:43.451Z,2.00
2022-08-07T19:31:05.487Z,2.15
2022-08-07T19:32:27.138Z,1.75
2022-08-07T19:35:00.623Z,1.80
2022-08-07T19:37:55.370Z,2.03
2022-08-07T19:40:18.771Z,2.17
2022-08-07T19:42:58.638Z,2.25
2022-08-07T19:46:05.104Z,2.78
2022-08-07T19:48:18.682Z,1.90
2022-08-07T19:50:53.591Z,2.05
2022-08-07T19:54:35.068Z,2.00
2022-08-07T19:57:51.909Z,2.10
2022-08-07T19:58:58.543Z,2.70
2022-08-07T20:01:52.911Z,2.10
2022-08-07T20:04:31.545Z,3.70
2022-08-07T20:07:09.036Z,2.20
2022-08-07T20:10:35.891Z,1.95
2022-08-07T20:12:35.862Z,1.95
2022-08-07T20:15:15.564Z,2.57
2022-08-07T20:17:56.231Z,2.22
2022-08-07T20:20:31.652Z,1.95
2022-08-07T20:23:23.154Z,2.00
2022-08-07T20:25:51.094Z,2.45
2022-08-07T20:28:29.479Z,1.90
2022-08-07T20:30:57.159Z,2.58
2022-08-07T20:33:37.493Z,2.38
2022-08-07T20:36:08.352Z,2.17
2022-08-07T20:38:59.675Z,2.35
2022-08-07T20:41:34.070Z,2.40
2022-08-07T20:44:10.470Z,2.30
2022-08-07T20:46:43.746Z,2.25
2022-08-07T20:49:58.311Z,2.53
2022-08-07T20:52:07.812Z,2.25
2022-08-07T20:54:45.701Z,1.87
2022-08-07T20:57:59.981Z,2.00
2022-08-07T21:00:44.114Z,1.80
2022-08-07T21:03:19.156Z,2.47
2022-08-07T21:05:57.126Z,1.80
2022-08-07T21:08:36.854Z,2.40
2022-08-07T21:11:10.956Z,2.40
2022-08-07T21:14:20.305Z,3.15
2022-08-07T21:16:36.292Z,2.60
2022-08-07T21:19:06.359Z,2.88
2022-08-07T21:21:57.219Z,2.03
2022-08-07T21:24:42.257Z,2.15
2022-08-07T21:27:39.998Z,2.15
2022-08-07T21:30:16.739Z,3.25
2022-08-07T21:32:55.558Z,2.35
2022-08-07T21:36:03.985Z,2.07
2022-08-07T21:38:37.688Z,3.03
2022-08-07T21:41:38.415Z,2.30
2022-08-07T21:44:30.880Z,2.30
2022-08-07T21:47:17.363Z,2.60
2022-08-07T21:50:01.991Z,2.60
2022-08-07T21:52:41.916Z,2.67
2022-08-07T21:55:19.263Z,2.72
2022-08-07T21:58:06.672Z,2.53
2022-08-07T22:00:35.400Z,2.80
2022-08-07T22:03:31.741Z,2.93
2022-08-07T22:06:29.902Z,2.13
2022-08-07T22:09:07.859Z,3.15
2022-08-07T22:12:05.792Z,2.63
2022-08-07T22:14:36.438Z,2.55
2022-08-07T22:17:05.008Z,3.00
2022-08-07T22:20:04.329Z,2.30
2022-08-07T22:23:08.370Z,2.90
2022-08-07T22:25:51.163Z,2.58
2022-08-07T22:28:53.212Z,2.80
2022-08-07T22:31:56.456Z,2.67
2022-08-07T22:34:19.844Z,2.92
2022-08-07T22:37:12.518Z,2.53
2022-08-07T22:39:57.491Z,3.15
2022-08-07T22:42:29.470Z,2.60
2022-08-07T22:45:02.213Z,2.40
2022-08-07T22:48:31.360Z,2.28
2022-08-07T22:51:23.599Z,2.63
2022-08-07T22:54:12.183Z,2.97
2022-08-07T22:56:45.607Z,2.72
2022-08-07T22:59:49.806Z,2.33
2022-08-07T23:02:32.406Z,3.42
2022-08-07T23:06:08.179Z,2.92
2022-08-07T23:08:22.627Z,2.38
2022-08-07T23:11:13.167Z,2.20
2022-08-07T23:14:10.586Z,2.80
2022-08-07T23:17:00.825Z,3.47
2022-08-07T23:20:51.437Z,2.35
2022-08-07T23:24:06.589Z,2.13
2022-08-07T23:26:38.256Z,2.67
2022-08-07T23:29:16.633Z,2.87
2022-08-07T23:34:22.180Z,2.42
2022-08-07T23:35:01.121Z,5.40
2022-08-07T23:38:00.904Z,3.05
2022-08-07T23:40:41.980Z,2.65
2022-08-07T23:43:37.926Z,2.83
2022-08-07T23:46:38.553Z,2.88
2022-08-07T23:49:22.971Z,3.65
2022-08-07T23:53:05.707Z,3.05
2022-08-07T23:55:52.233Z,2.95
2022-08-07T23:58:34.802Z,3.07
